sensor_id;sensor_type;location;lat;lon;timestamp;temperature;humidity
25568;DHT22;13455;51.480;7.594;2022-07-19T01:22:41;21.10;83.70
25568;DHT22;13455;51.480;7.594;2022-07-19T01:25:08;21.00;84.30
25568;DHT22;13455;51.480;7.594;2022-07-19T01:27:45;20.90;85.20
25568;DHT22;13455;51.480;7.594;2022-07-19T01:30:20;20.90;85.40
25568;DHT22;13455;51.480;7.594;2022-07-19T01:32:48;20.80;85.50
25568;DHT22;13455;51.480;7.594;2022-07-19T01:35:14;20.70;85.50
25568;DHT22;13455;51.480;7.594;2022-07-19T01:37:41;20.70;85.30
25568;DHT22;13455;51.480;7.594;2022-07-19T01:40:09;20.60;85.20
25568;DHT22;13455;51.480;7.594;2022-07-19T01:42:35;20.60;85.30
25568;DHT22;13455;51.480;7.594;2022-07-19T01:45:02;20.60;85.60
25568;DHT22;13455;51.480;7.594;2022-07-19T01:47:28;20.50;85.50
25568;DHT22;13455;51.480;7.594;2022-07-19T01:49:54;20.50;86.40
25568;DHT22;13455;51.480;7.594;2022-07-19T01:52:19;20.50;85.70
25568;DHT22;13455;51.480;7.594;2022-07-19T01:54:45;20.50;85.70
25568;DHT22;13455;51.480;7.594;2022-07-19T01:57:10;20.50;85.70
25568;DHT22;13455;51.480;7.594;2022-07-19T01:59:36;20.40;86.10
25568;DHT22;13455;51.480;7.594;2022-07-19T02:02:03;20.40;86.50
25568;DHT22;13455;51.480;7.594;2022-07-19T02:04:29;20.40;87.00
25568;DHT22;13455;51.480;7.594;2022-07-19T02:06:55;20.30;87.30
25568;DHT22;13455;51.480;7.594;2022-07-19T02:09:20;20.30;87.50
25568;DHT22;13455;51.480;7.594;2022-07-19T02:11:46;20.30;87.80
25568;DHT22;13455;51.480;7.594;2022-07-19T02:14:11;20.40;89.20
25568;DHT22;13455;51.480;7.594;2022-07-19T02:16:38;20.20;88.20
25568;DHT22;13455;51.480;7.594;2022-07-19T02:19:05;20.10;88.20
25568;DHT22;13455;51.480;7.594;2022-07-19T02:21:32;20.20;88.20
25568;DHT22;13455;51.480;7.594;2022-07-19T02:23:58;20.20;89.00
25568;DHT22;13455;51.480;7.594;2022-07-19T02:26:24;20.20;88.20
25568;DHT22;13455;51.480;7.594;2022-07-19T02:28:50;20.20;88.40
25568;DHT22;13455;51.480;7.594;2022-07-19T02:31:15;20.10;88.50
25568;DHT22;13455;51.480;7.594;2022-07-19T02:33:42;20.10;88.70
25568;DHT22;13455;51.480;7.594;2022-07-19T02:36:08;20.10;89.00
25568;DHT22;13455;51.480;7.594;2022-07-19T02:38:33;20.00;89.00
25568;DHT22;13455;51.480;7.594;2022-07-19T02:40:59;20.00;89.10
25568;DHT22;13455;51.480;7.594;2022-07-19T02:43:25;19.90;90.00
25568;DHT22;13455;51.480;7.594;2022-07-19T05:53:24;21.40;99.90
25568;DHT22;13455;51.480;7.594;2022-07-19T05:55:50;21.60;99.90
25568;DHT22;13455;51.480;7.594;2022-07-19T05:58:15;21.60;99.90
25568;DHT22;13455;51.480;7.594;2022-07-19T06:03:29;21.90;99.90
25568;DHT22;13455;51.480;7.594;2022-07-19T06:05:55;22.00;97.90
25568;DHT22;13455;51.480;7.594;2022-07-19T06:08:21;22.10;93.50
25568;DHT22;13455;51.480;7.594;2022-07-19T06:10:47;22.10;89.20
25568;DHT22;13455;51.480;7.594;2022-07-19T06:13:12;22.30;88.90
25568;DHT22;13455;51.480;7.594;2022-07-19T06:20:30;22.90;85.90
25568;DHT22;13455;51.480;7.594;2022-07-19T06:22:56;22.90;85.90
25568;DHT22;13455;51.480;7.594;2022-07-19T06:47:16;24.40;79.70
25568;DHT22;13455;51.480;7.594;2022-07-19T07:06:45;25.60;72.00
25568;DHT22;13455;51.480;7.594;2022-07-19T07:11:37;26.00;71.30
25568;DHT22;13455;51.480;7.594;2022-07-19T07:14:02;26.10;71.60
25568;DHT22;13455;51.480;7.594;2022-07-19T07:16:28;26.20;69.20
25568;DHT22;13455;51.480;7.594;2022-07-19T07:23:47;26.70;97.60
25568;DHT22;13455;51.480;7.594;2022-07-19T07:26:12;26.80;67.70
25568;DHT22;13455;51.480;7.594;2022-07-19T07:28:38;27.00;67.90
25568;DHT22;13455;51.480;7.594;2022-07-19T07:31:04;27.10;68.10
25568;DHT22;13455;51.480;7.594;2022-07-19T07:33:29;27.40;70.10
25568;DHT22;13455;51.480;7.594;2022-07-19T07:35:55;27.60;69.70
25568;DHT22;13455;51.480;7.594;2022-07-19T07:43:15;28.00;75.10
25568;DHT22;13455;51.480;7.594;2022-07-19T07:45:40;28.20;72.50
25568;DHT22;13455;51.480;7.594;2022-07-19T07:48:06;28.30;63.30
25568;DHT22;13455;51.480;7.594;2022-07-19T07:50:31;28.40;62.30
25568;DHT22;13455;51.480;7.594;2022-07-19T07:52:57;28.70;89.50
25568;DHT22;13455;51.480;7.594;2022-07-19T07:55:23;28.70;62.50
25568;DHT22;13455;51.480;7.594;2022-07-19T07:57:48;28.90;62.00
25568;DHT22;13455;51.480;7.594;2022-07-19T08:12:26;30.10;92.20
25568;DHT22;13455;51.480;7.594;2022-07-19T08:17:18;30.30;57.00
25568;DHT22;13455;51.480;7.594;2022-07-19T08:22:09;30.60;80.60
25568;DHT22;13455;51.480;7.594;2022-07-19T08:27:01;31.00;79.30
25568;DHT22;13455;51.480;7.594;2022-07-19T08:29:27;31.10;76.20
25568;DHT22;13455;51.480;7.594;2022-07-19T08:31:52;31.20;76.80
25568;DHT22;13455;51.480;7.594;2022-07-19T08:56:20;33.50;85.50
25568;DHT22;13455;51.480;7.594;2022-07-19T09:01:31;33.70;41.50
25568;DHT22;13455;51.480;7.594;2022-07-19T09:06:49;34.10;41.60
25568;DHT22;13455;51.480;7.594;2022-07-19T09:09:20;34.00;41.40
25568;DHT22;13455;51.480;7.594;2022-07-19T09:11:47;34.20;39.70
25568;DHT22;13455;51.480;7.594;2022-07-19T09:14:20;34.20;39.70
25568;DHT22;13455;51.480;7.594;2022-07-19T09:19:29;34.80;38.50
25568;DHT22;13455;51.480;7.594;2022-07-19T09:29:30;35.50;48.80
25568;DHT22;13455;51.480;7.594;2022-07-19T09:39:42;36.10;35.30
25568;DHT22;13455;51.480;7.594;2022-07-19T09:42:11;36.20;35.70
25568;DHT22;13455;51.480;7.594;2022-07-19T09:44:37;36.40;35.50
25568;DHT22;13455;51.480;7.594;2022-07-19T09:47:03;36.60;34.80
25568;DHT22;13455;51.480;7.594;2022-07-19T09:51:55;36.90;32.90
25568;DHT22;13455;51.480;7.594;2022-07-19T09:54:25;36.90;33.20
25568;DHT22;13455;51.480;7.594;2022-07-19T09:59:21;37.40;31.40
25568;DHT22;13455;51.480;7.594;2022-07-19T10:01:48;37.50;32.30
25568;DHT22;13455;51.480;7.594;2022-07-19T10:04:19;38.00;66.20
25568;DHT22;13455;51.480;7.594;2022-07-19T10:11:40;38.00;29.00
25568;DHT22;13455;51.480;7.594;2022-07-19T10:14:06;38.00;30.00
25568;DHT22;13455;51.480;7.594;2022-07-19T10:16:51;38.00;29.70
25568;DHT22;13455;51.480;7.594;2022-07-19T10:22:10;38.20;27.90
25568;DHT22;13455;51.480;7.594;2022-07-19T10:24:57;38.30;28.80
25568;DHT22;13455;51.480;7.594;2022-07-19T10:29:52;38.80;29.60
25568;DHT22;13455;51.480;7.594;2022-07-19T10:32:17;38.80;29.60
25568;DHT22;13455;51.480;7.594;2022-07-19T10:34:44;38.30;29.60
25568;DHT22;13455;51.480;7.594;2022-07-19T10:37:13;39.20;30.10
25568;DHT22;13455;51.480;7.594;2022-07-19T10:39:40;39.30;30.30
25568;DHT22;13455;51.480;7.594;2022-07-19T10:42:06;39.50;30.20
25568;DHT22;13455;51.480;7.594;2022-07-19T10:44:33;39.70;28.10
25568;DHT22;13455;51.480;7.594;2022-07-19T10:46:59;39.70;28.10
25568;DHT22;13455;51.480;7.594;2022-07-19T10:49:45;39.70;28.40
25568;DHT22;13455;51.480;7.594;2022-07-19T10:58:09;39.50;27.70
25568;DHT22;13455;51.480;7.594;2022-07-19T11:00:47;39.50;27.10
25568;DHT22;13455;51.480;7.594;2022-07-19T11:05:50;39.70;28.40
25568;DHT22;13455;51.480;7.594;2022-07-19T11:08:16;39.80;27.40
25568;DHT22;13455;51.480;7.594;2022-07-19T11:16:00;40.60;26.80
25568;DHT22;13455;51.480;7.594;2022-07-19T11:18:28;40.70;27.80
25568;DHT22;13455;51.480;7.594;2022-07-19T11:23:37;41.10;63.40
25568;DHT22;13455;51.480;7.594;2022-07-19T11:28:35;41.30;40.00
25568;DHT22;13455;51.480;7.594;2022-07-19T11:33:38;41.60;26.20
25568;DHT22;13455;51.480;7.594;2022-07-19T11:36:04;41.80;25.50
25568;DHT22;13455;51.480;7.594;2022-07-19T12:16:10;43.30;24.50
25568;DHT22;13455;51.480;7.594;2022-07-19T12:18:50;43.40;25.40
25568;DHT22;13455;51.480;7.594;2022-07-19T12:24:17;43.50;23.10
25568;DHT22;13455;51.480;7.594;2022-07-19T12:34:19;43.80;22.30
25568;DHT22;13455;51.480;7.594;2022-07-19T12:36:45;43.90;23.60
25568;DHT22;13455;51.480;7.594;2022-07-19T12:39:28;44.10;23.50
25568;DHT22;13455;51.480;7.594;2022-07-19T12:42:01;44.20;23.10
25568;DHT22;13455;51.480;7.594;2022-07-19T12:44:27;44.10;23.10
25568;DHT22;13455;51.480;7.594;2022-07-19T12:46:54;44.00;26.50
25568;DHT22;13455;51.480;7.594;2022-07-19T12:49:19;44.10;23.30
25568;DHT22;13455;51.480;7.594;2022-07-19T12:51:45;44.10;46.70
25568;DHT22;13455;51.480;7.594;2022-07-19T12:54:11;44.70;45.70
25568;DHT22;13455;51.480;7.594;2022-07-19T12:56:38;44.70;22.80
25568;DHT22;13455;51.480;7.594;2022-07-19T12:59:04;44.80;22.50
25568;DHT22;13455;51.480;7.594;2022-07-19T13:01:48;45.00;22.80
25568;DHT22;13455;51.480;7.594;2022-07-19T13:04:14;45.20;23.80
25568;DHT22;13455;51.480;7.594;2022-07-19T13:06:39;45.40;23.10
25568;DHT22;13455;51.480;7.594;2022-07-19T13:09:05;45.10;22.80
25568;DHT22;13455;51.480;7.594;2022-07-19T13:11:32;45.10;22.80
25568;DHT22;13455;51.480;7.594;2022-07-19T13:13:58;45.20;23.00
25568;DHT22;13455;51.480;7.594;2022-07-19T13:16:23;45.30;22.60
25568;DHT22;13455;51.480;7.594;2022-07-19T13:18:49;45.50;23.80
25568;DHT22;13455;51.480;7.594;2022-07-19T13:21:16;45.80;24.40
25568;DHT22;13455;51.480;7.594;2022-07-19T13:23:43;45.90;24.00
25568;DHT22;13455;51.480;7.594;2022-07-19T13:26:08;46.00;23.50
25568;DHT22;13455;51.480;7.594;2022-07-19T13:28:34;46.20;23.50
25568;DHT22;13455;51.480;7.594;2022-07-19T13:31:01;46.30;44.30
25568;DHT22;13455;51.480;7.594;2022-07-19T13:33:27;46.30;38.30
25568;DHT22;13455;51.480;7.594;2022-07-19T13:35:52;46.20;40.10
25568;DHT22;13455;51.480;7.594;2022-07-19T13:38:18;46.20;40.40
25568;DHT22;13455;51.480;7.594;2022-07-19T13:40:44;45.90;42.30
25568;DHT22;13455;51.480;7.594;2022-07-19T13:43:09;46.30;41.40
25568;DHT22;13455;51.480;7.594;2022-07-19T13:45:35;46.50;32.80
25568;DHT22;13455;51.480;7.594;2022-07-19T13:48:01;46.60;32.90
25568;DHT22;13455;51.480;7.594;2022-07-19T13:50:27;46.50;33.10
25568;DHT22;13455;51.480;7.594;2022-07-19T13:52:53;46.50;34.40
25568;DHT22;13455;51.480;7.594;2022-07-19T13:55:19;46.80;38.20
25568;DHT22;13455;51.480;7.594;2022-07-19T13:57:44;46.50;38.40
25568;DHT22;13455;51.480;7.594;2022-07-19T14:00:11;46.90;35.00
25568;DHT22;13455;51.480;7.594;2022-07-19T14:02:39;47.10;37.10
25568;DHT22;13455;51.480;7.594;2022-07-19T14:05:05;47.30;29.50
25568;DHT22;13455;51.480;7.594;2022-07-19T14:07:31;47.40;21.50
25568;DHT22;13455;51.480;7.594;2022-07-19T14:12:25;47.10;36.90
25568;DHT22;13455;51.480;7.594;2022-07-19T14:14:51;47.30;20.90
25568;DHT22;13455;51.480;7.594;2022-07-19T14:17:16;46.90;21.50
25568;DHT22;13455;51.480;7.594;2022-07-19T14:19:42;47.10;22.70
25568;DHT22;13455;51.480;7.594;2022-07-19T14:22:08;47.40;21.80
25568;DHT22;13455;51.480;7.594;2022-07-19T14:24:34;47.60;21.80
25568;DHT22;13455;51.480;7.594;2022-07-19T14:27:00;47.70;20.70
25568;DHT22;13455;51.480;7.594;2022-07-19T14:29:26;47.90;21.90
25568;DHT22;13455;51.480;7.594;2022-07-19T14:31:51;48.10;46.00
25568;DHT22;13455;51.480;7.594;2022-07-19T14:34:17;47.40;20.80
25568;DHT22;13455;51.480;7.594;2022-07-19T15:47:46;50.40;47.70
25568;DHT22;13455;51.480;7.594;2022-07-19T15:50:14;50.60;29.40
25568;DHT22;13455;51.480;7.594;2022-07-19T15:52:40;50.00;18.20
25568;DHT22;13455;51.480;7.594;2022-07-19T15:55:07;49.60;18.50
25568;DHT22;13455;51.480;7.594;2022-07-19T15:57:33;49.60;18.80
25568;DHT22;13455;51.480;7.594;2022-07-19T15:59:59;49.60;18.40
25568;DHT22;13455;51.480;7.594;2022-07-19T16:02:25;49.60;23.90
25568;DHT22;13455;51.480;7.594;2022-07-19T16:09:44;50.50;47.00
25568;DHT22;13455;51.480;7.594;2022-07-19T16:12:12;50.70;18.30
25568;DHT22;13455;51.480;7.594;2022-07-19T16:14:38;50.80;18.70
25568;DHT22;13455;51.480;7.594;2022-07-19T16:17:04;51.00;18.20
25568;DHT22;13455;51.480;7.594;2022-07-19T16:19:30;50.80;17.70
25568;DHT22;13455;51.480;7.594;2022-07-19T16:21:55;50.80;18.20
25568;DHT22;13455;51.480;7.594;2022-07-19T16:24:21;50.80;20.10
25568;DHT22;13455;51.480;7.594;2022-07-19T16:26:47;50.70;20.30
25568;DHT22;13455;51.480;7.594;2022-07-19T16:29:12;50.80;21.80
25568;DHT22;13455;51.480;7.594;2022-07-19T16:31:38;50.40;19.80
25568;DHT22;13455;51.480;7.594;2022-07-19T16:34:03;50.60;21.10
25568;DHT22;13455;51.480;7.594;2022-07-19T16:36:29;50.60;21.30
25568;DHT22;13455;51.480;7.594;2022-07-19T16:38:55;50.50;19.70
25568;DHT22;13455;51.480;7.594;2022-07-19T16:41:20;50.40;18.10
25568;DHT22;13455;51.480;7.594;2022-07-19T16:43:46;50.40;18.10
25568;DHT22;13455;51.480;7.594;2022-07-19T16:46:12;50.40;18.40
25568;DHT22;13455;51.480;7.594;2022-07-19T16:48:37;50.30;18.40
25568;DHT22;13455;51.480;7.594;2022-07-19T16:51:03;50.40;18.70
25568;DHT22;13455;51.480;7.594;2022-07-19T16:53:28;50.50;19.30
25568;DHT22;13455;51.480;7.594;2022-07-19T16:55:56;50.50;19.10
25568;DHT22;13455;51.480;7.594;2022-07-19T16:58:22;50.20;18.20
25568;DHT22;13455;51.480;7.594;2022-07-19T17:00:47;49.90;18.20
25568;DHT22;13455;51.480;7.594;2022-07-19T17:03:13;49.80;19.10
25568;DHT22;13455;51.480;7.594;2022-07-19T17:05:39;49.60;18.40
25568;DHT22;13455;51.480;7.594;2022-07-19T17:08:04;48.90;18.10
25568;DHT22;13455;51.480;7.594;2022-07-19T17:10:30;48.40;18.60
25568;DHT22;13455;51.480;7.594;2022-07-19T17:12:56;47.70;18.80
25568;DHT22;13455;51.480;7.594;2022-07-19T17:15:21;47.30;19.30
25568;DHT22;13455;51.480;7.594;2022-07-19T17:17:47;46.80;19.50
25568;DHT22;13455;51.480;7.594;2022-07-19T17:22:39;45.80;19.40
25568;DHT22;13455;51.480;7.594;2022-07-19T17:25:06;45.30;20.20
25568;DHT22;13455;51.480;7.594;2022-07-19T17:27:32;44.90;20.40
25568;DHT22;13455;51.480;7.594;2022-07-19T17:29:59;44.60;20.70
25568;DHT22;13455;51.480;7.594;2022-07-19T17:32:24;44.20;20.90
25568;DHT22;13455;51.480;7.594;2022-07-19T17:34:50;43.80;21.60
25568;DHT22;13455;51.480;7.594;2022-07-19T17:37:16;43.50;21.80
25568;DHT22;13455;51.480;7.594;2022-07-19T17:39:42;43.30;22.00
25568;DHT22;13455;51.480;7.594;2022-07-19T17:42:08;42.90;22.00
25568;DHT22;13455;51.480;7.594;2022-07-19T17:44:33;42.50;22.00
25568;DHT22;13455;51.480;7.594;2022-07-19T17:46:59;42.20;22.50
25568;DHT22;13455;51.480;7.594;2022-07-19T17:49:25;42.00;22.60
25568;DHT22;13455;51.480;7.594;2022-07-19T17:51:51;41.70;22.60
25568;DHT22;13455;51.480;7.594;2022-07-19T17:54:17;41.40;23.10
25568;DHT22;13455;51.480;7.594;2022-07-19T17:56:42;41.20;23.50
25568;DHT22;13455;51.480;7.594;2022-07-19T17:59:08;41.00;23.40
25568;DHT22;13455;51.480;7.594;2022-07-19T18:01:34;40.80;23.50
25568;DHT22;13455;51.480;7.594;2022-07-19T18:04:00;40.80;24.10
25568;DHT22;13455;51.480;7.594;2022-07-19T18:06:26;40.60;24.20
25568;DHT22;13455;51.480;7.594;2022-07-19T18:08:51;40.40;24.40
25568;DHT22;13455;51.480;7.594;2022-07-19T18:11:17;40.20;24.80
25568;DHT22;13455;51.480;7.594;2022-07-19T18:13:43;40.10;25.60
25568;DHT22;13455;51.480;7.594;2022-07-19T18:16:09;39.90;25.60
25568;DHT22;13455;51.480;7.594;2022-07-19T18:18:35;39.70;25.60
25568;DHT22;13455;51.480;7.594;2022-07-19T18:21:01;39.50;25.70
25568;DHT22;13455;51.480;7.594;2022-07-19T18:23:27;39.40;26.20
25568;DHT22;13455;51.480;7.594;2022-07-19T18:25:53;39.20;26.30
25568;DHT22;13455;51.480;7.594;2022-07-19T18:28:18;39.00;26.60
25568;DHT22;13455;51.480;7.594;2022-07-19T18:30:44;38.80;26.60
25568;DHT22;13455;51.480;7.594;2022-07-19T18:33:10;38.80;26.50
25568;DHT22;13455;51.480;7.594;2022-07-19T18:35:35;38.60;26.60
25568;DHT22;13455;51.480;7.594;2022-07-19T18:38:01;38.40;26.90
25568;DHT22;13455;51.480;7.594;2022-07-19T18:40:27;38.30;27.30
25568;DHT22;13455;51.480;7.594;2022-07-19T18:42:53;38.20;27.30
25568;DHT22;13455;51.480;7.594;2022-07-19T18:45:19;38.10;27.80
25568;DHT22;13455;51.480;7.594;2022-07-19T18:47:46;37.90;27.70
25568;DHT22;13455;51.480;7.594;2022-07-19T18:50:12;37.70;28.00
25568;DHT22;13455;51.480;7.594;2022-07-19T18:52:38;37.60;28.20
25568;DHT22;13455;51.480;7.594;2022-07-19T18:55:04;37.50;28.30
25568;DHT22;13455;51.480;7.594;2022-07-19T18:57:30;37.30;28.20
25568;DHT22;13455;51.480;7.594;2022-07-19T18:59:56;37.20;28.40
25568;DHT22;13455;51.480;7.594;2022-07-19T19:02:21;37.00;28.40
25568;DHT22;13455;51.480;7.594;2022-07-19T19:04:48;36.90;31.10
25568;DHT22;13455;51.480;7.594;2022-07-19T19:07:19;36.70;28.80
25568;DHT22;13455;51.480;7.594;2022-07-19T19:09:45;36.60;28.70
25568;DHT22;13455;51.480;7.594;2022-07-19T19:12:11;36.50;51.00
25568;DHT22;13455;51.480;7.594;2022-07-19T19:14:37;36.30;30.40
25568;DHT22;13455;51.480;7.594;2022-07-19T19:19:31;35.80;62.90
25568;DHT22;13455;51.480;7.594;2022-07-19T19:24:23;35.50;61.30
25568;DHT22;13455;51.480;7.594;2022-07-19T19:29:18;35.20;62.00
25568;DHT22;13455;51.480;7.594;2022-07-19T19:36:36;35.10;62.20
25568;DHT22;13455;51.480;7.594;2022-07-19T19:39:03;34.80;29.60
25568;DHT22;13455;51.480;7.594;2022-07-19T19:41:28;34.70;29.70
25568;DHT22;13455;51.480;7.594;2022-07-19T19:43:55;34.60;47.40
25568;DHT22;13455;51.480;7.594;2022-07-19T19:46:21;34.30;40.50
25568;DHT22;13455;51.480;7.594;2022-07-19T19:48:47;34.20;29.90
25568;DHT22;13455;51.480;7.594;2022-07-19T19:51:13;34.10;30.00
25568;DHT22;13455;51.480;7.594;2022-07-19T19:53:39;34.00;31.20
25568;DHT22;13455;51.480;7.594;2022-07-19T19:56:10;33.80;30.20
25568;DHT22;13455;51.480;7.594;2022-07-19T19:58:35;34.00;30.50
25568;DHT22;13455;51.480;7.594;2022-07-19T20:01:01;33.60;30.20
25568;DHT22;13455;51.480;7.594;2022-07-19T20:03:27;33.40;30.30
25568;DHT22;13455;51.480;7.594;2022-07-19T20:05:53;33.30;30.40
25568;DHT22;13455;51.480;7.594;2022-07-19T20:08:19;33.20;34.30
25568;DHT22;13455;51.480;7.594;2022-07-19T20:10:45;33.10;30.50
25568;DHT22;13455;51.480;7.594;2022-07-19T20:13:11;33.00;41.60
25568;DHT22;13455;51.480;7.594;2022-07-19T20:15:38;32.90;35.20
25568;DHT22;13455;51.480;7.594;2022-07-19T20:18:04;32.80;43.00
25568;DHT22;13455;51.480;7.594;2022-07-19T20:20:30;32.60;31.10
25568;DHT22;13455;51.480;7.594;2022-07-19T20:22:57;32.70;60.10
25568;DHT22;13455;51.480;7.594;2022-07-19T20:25:23;32.40;58.80
25568;DHT22;13455;51.480;7.594;2022-07-19T20:27:49;32.30;42.10
25568;DHT22;13455;51.480;7.594;2022-07-19T20:30:16;32.20;36.50
25568;DHT22;13455;51.480;7.594;2022-07-19T20:35:08;32.00;33.00
25568;DHT22;13455;51.480;7.594;2022-07-19T20:37:34;31.90;31.80
25568;DHT22;13455;51.480;7.594;2022-07-19T20:40:00;31.90;31.90
25568;DHT22;13455;51.480;7.594;2022-07-19T20:42:26;31.80;49.00
25568;DHT22;13455;51.480;7.594;2022-07-19T20:44:52;31.60;32.40
25568;DHT22;13455;51.480;7.594;2022-07-19T20:47:17;31.50;39.40
25568;DHT22;13455;51.480;7.594;2022-07-19T20:49:44;31.40;32.90
25568;DHT22;13455;51.480;7.594;2022-07-19T20:52:10;31.30;32.70
25568;DHT22;13455;51.480;7.594;2022-07-19T20:54:35;31.20;32.70
25568;DHT22;13455;51.480;7.594;2022-07-19T20:57:02;31.10;32.80
25568;DHT22;13455;51.480;7.594;2022-07-19T21:11:38;30.60;33.00
25568;DHT22;13455;51.480;7.594;2022-07-19T21:16:30;30.40;33.80
25568;DHT22;13455;51.480;7.594;2022-07-19T21:18:56;30.40;34.30
25568;DHT22;13455;51.480;7.594;2022-07-19T21:21:25;30.30;34.60
25568;DHT22;13455;51.480;7.594;2022-07-19T21:26:16;30.10;34.80
25568;DHT22;13455;51.480;7.594;2022-07-19T21:28:42;30.00;35.70
25568;DHT22;13455;51.480;7.594;2022-07-19T21:31:08;30.00;38.00
25568;DHT22;13455;51.480;7.594;2022-07-19T21:33:33;29.80;36.30
25568;DHT22;13455;51.480;7.594;2022-07-19T21:35:59;29.70;36.10
25568;DHT22;13455;51.480;7.594;2022-07-19T21:38:25;29.60;36.70
25568;DHT22;13455;51.480;7.594;2022-07-19T21:40:51;29.50;36.70
25568;DHT22;13455;51.480;7.594;2022-07-19T21:43:16;29.40;36.40
25568;DHT22;13455;51.480;7.594;2022-07-19T21:48:08;29.30;36.80
25568;DHT22;13455;51.480;7.594;2022-07-19T21:55:26;29.10;61.10
25568;DHT22;13455;51.480;7.594;2022-07-19T22:00:19;28.90;50.40
25568;DHT22;13455;51.480;7.594;2022-07-19T22:02:46;28.80;43.80
25568;DHT22;13455;51.480;7.594;2022-07-19T22:05:12;28.80;50.00
25568;DHT22;13455;51.480;7.594;2022-07-19T22:10:05;28.60;38.80
25568;DHT22;13455;51.480;7.594;2022-07-19T22:14:57;28.50;39.00
25568;DHT22;13455;51.480;7.594;2022-07-19T22:17:24;28.40;39.30
25568;DHT22;13455;51.480;7.594;2022-07-19T22:19:50;28.40;40.40
25568;DHT22;13455;51.480;7.594;2022-07-19T22:53:54;27.80;39.60
25568;DHT22;13455;51.480;7.594;2022-07-19T22:56:20;27.70;40.40
25568;DHT22;13455;51.480;7.594;2022-07-19T22:58:45;27.60;52.70
25568;DHT22;13455;51.480;7.594;2022-07-19T23:01:11;27.40;40.60
25568;DHT22;13455;51.480;7.594;2022-07-19T23:06:03;27.40;40.70
25568;DHT22;13455;51.480;7.594;2022-07-19T23:08:29;27.40;41.30
25568;DHT22;13455;51.480;7.594;2022-07-19T23:10:54;27.30;50.30
25568;DHT22;13455;51.480;7.594;2022-07-19T23:25:30;27.10;41.80
25568;DHT22;13455;51.480;7.594;2022-07-19T23:52:18;26.70;74.60
25568;DHT22;13455;51.480;7.594;2022-07-19T23:54:44;26.70;60.20
